createdAt,value
2023-06-26T00:01:41.272Z,99.90
2023-06-26T00:04:08.722Z,99.90
2023-06-26T00:06:37.145Z,99.90
2023-06-26T00:09:04.161Z,99.90
2023-06-26T00:11:34.220Z,99.90
2023-06-26T00:14:02.462Z,99.90
2023-06-26T00:16:29.517Z,99.90
2023-06-26T00:18:56.477Z,99.90
2023-06-26T00:21:23.378Z,99.90
2023-06-26T00:23:50.248Z,99.90
2023-06-26T00:26:17.209Z,99.90
2023-06-26T00:28:44.204Z,99.90
2023-06-26T00:31:11.178Z,99.90
2023-06-26T00:33:38.034Z,99.90
2023-06-26T00:36:05.393Z,99.90
2023-06-26T00:38:32.592Z,99.90
2023-06-26T00:40:59.579Z,99.90
2023-06-26T00:43:26.461Z,99.90
2023-06-26T00:45:53.566Z,99.90
2023-06-26T00:48:20.556Z,99.90
2023-06-26T00:50:47.586Z,99.90
2023-06-26T00:53:14.609Z,99.90
2023-06-26T00:55:41.626Z,99.90
2023-06-26T00:58:08.712Z,99.90
2023-06-26T01:00:35.774Z,99.90
2023-06-26T01:03:03.002Z,99.90
2023-06-26T01:05:30.924Z,99.90
2023-06-26T01:08:00.057Z,99.90
2023-06-26T01:10:30.247Z,99.90
2023-06-26T01:12:58.754Z,99.90
2023-06-26T01:15:25.834Z,99.90
2023-06-26T01:17:53.596Z,99.90
2023-06-26T01:20:21.763Z,99.90
2023-06-26T01:23:10.108Z,99.90
2023-06-26T01:26:08.760Z,99.90
2023-06-26T01:28:40.017Z,99.90
2023-06-26T01:31:09.300Z,99.90
2023-06-26T01:33:37.412Z,99.90
2023-06-26T01:36:05.436Z,99.90
2023-06-26T01:38:32.335Z,99.90
2023-06-26T01:41:04.861Z,99.90
2023-06-26T01:43:55.979Z,99.90
2023-06-26T01:47:03.432Z,99.90
2023-06-26T01:49:52.035Z,99.90
2023-06-26T01:52:42.987Z,99.90
2023-06-26T01:55:28.199Z,99.90
2023-06-26T01:57:59.366Z,99.90
2023-06-26T02:00:27.877Z,99.90
2023-06-26T02:02:54.826Z,99.90
2023-06-26T02:05:22.000Z,99.90
2023-06-26T02:07:48.890Z,99.90
2023-06-26T02:10:16.040Z,99.90
2023-06-26T02:12:42.888Z,99.90
2023-06-26T02:15:10.290Z,99.90
2023-06-26T02:17:37.329Z,99.90
2023-06-26T02:20:04.811Z,99.90
2023-06-26T02:22:31.694Z,99.90
2023-06-26T02:24:58.642Z,99.90
2023-06-26T02:27:25.533Z,99.90
2023-06-26T02:29:52.939Z,99.90
2023-06-26T02:32:19.962Z,99.90
2023-06-26T02:34:46.856Z,99.90
2023-06-26T02:37:14.041Z,99.90
2023-06-26T02:39:40.950Z,99.90
2023-06-26T02:42:07.865Z,99.90
2023-06-26T02:44:34.742Z,99.90
2023-06-26T02:47:01.673Z,99.90
2023-06-26T02:49:28.641Z,99.90
2023-06-26T02:51:56.026Z,99.90
2023-06-26T02:54:22.986Z,99.90
2023-06-26T02:56:50.012Z,99.90
2023-06-26T02:59:16.971Z,99.90
2023-06-26T03:01:43.888Z,99.90
2023-06-26T03:04:11.692Z,99.90
2023-06-26T03:06:38.761Z,99.90
2023-06-26T03:09:05.758Z,99.90
2023-06-26T03:11:32.677Z,99.90
2023-06-26T03:13:59.587Z,99.90
2023-06-26T03:16:26.509Z,99.90
2023-06-26T03:18:53.416Z,99.90
2023-06-26T03:21:20.476Z,99.90
2023-06-26T03:23:47.473Z,99.90
2023-06-26T03:26:15.826Z,99.90
2023-06-26T03:28:45.557Z,99.90
2023-06-26T03:31:12.453Z,99.90
2023-06-26T03:33:39.773Z,99.90
2023-06-26T03:36:07.242Z,99.90
2023-06-26T03:38:34.167Z,99.90
2023-06-26T03:41:01.320Z,99.90
2023-06-26T03:43:28.210Z,99.90
2023-06-26T03:45:55.397Z,99.90
2023-06-26T03:48:22.360Z,99.90
2023-06-26T03:50:49.595Z,99.90
2023-06-26T03:53:16.583Z,99.90
2023-06-26T03:55:43.460Z,99.90
2023-06-26T03:58:10.471Z,99.90
2023-06-26T04:00:37.348Z,99.90
2023-06-26T04:03:05.284Z,99.90
2023-06-26T04:05:32.220Z,99.90
2023-06-26T04:07:59.117Z,99.90
2023-06-26T04:10:26.001Z,99.90
2023-06-26T04:12:53.024Z,99.90
2023-06-26T04:15:20.066Z,99.90
2023-06-26T04:17:46.979Z,99.90
2023-06-26T04:20:14.160Z,99.90
2023-06-26T04:22:41.124Z,99.90
2023-06-26T04:25:08.364Z,99.90
2023-06-26T04:27:36.757Z,99.90
2023-06-26T04:30:06.006Z,99.90
2023-06-26T04:32:33.026Z,99.90
2023-06-26T04:34:59.956Z,99.90
2023-06-26T04:37:27.570Z,99.90
2023-06-26T04:39:54.449Z,99.90
2023-06-26T04:42:22.882Z,99.90
2023-06-26T04:44:49.916Z,99.90
2023-06-26T04:47:17.110Z,99.90
2023-06-26T04:49:47.240Z,99.90
2023-06-26T04:52:15.126Z,99.90
2023-06-26T04:54:42.066Z,99.90
2023-06-26T04:57:10.148Z,99.90
2023-06-26T04:59:37.184Z,99.90
2023-06-26T05:02:06.091Z,99.90
2023-06-26T05:04:33.260Z,99.90
2023-06-26T05:07:00.569Z,99.90
2023-06-26T05:09:27.908Z,99.90
2023-06-26T05:11:54.851Z,99.90
2023-06-26T05:14:23.631Z,99.90
2023-06-26T05:16:52.260Z,99.90
2023-06-26T05:19:19.246Z,99.90
2023-06-26T05:21:47.307Z,99.90
2023-06-26T05:24:16.846Z,99.90
2023-06-26T05:26:44.179Z,99.90
2023-06-26T05:29:11.377Z,99.90
2023-06-26T05:31:42.992Z,99.90
2023-06-26T05:34:12.174Z,99.90
2023-06-26T05:36:40.459Z,99.90
2023-06-26T05:39:08.086Z,99.90
2023-06-26T05:41:35.341Z,99.90
2023-06-26T05:44:02.228Z,99.90
2023-06-26T05:46:29.188Z,99.90
2023-06-26T05:48:56.315Z,99.90
2023-06-26T05:51:23.522Z,99.60
2023-06-26T05:53:51.335Z,98.70
2023-06-26T05:56:19.749Z,98.40
2023-06-26T05:58:47.771Z,98.10
2023-06-26T06:01:15.052Z,97.40
2023-06-26T06:03:42.221Z,96.90
2023-06-26T06:06:09.274Z,96.90
2023-06-26T06:08:36.302Z,96.50
2023-06-26T06:11:03.304Z,96.10
2023-06-26T06:13:30.490Z,95.30
2023-06-26T06:15:57.499Z,95.30
2023-06-26T06:18:24.496Z,94.70
2023-06-26T06:20:51.499Z,94.10
2023-06-26T06:23:18.396Z,93.60
2023-06-26T06:25:45.355Z,93.40
2023-06-26T06:28:12.313Z,93.20
2023-06-26T06:30:45.675Z,92.80
2023-06-26T06:33:13.515Z,92.90
2023-06-26T06:35:40.600Z,92.70
2023-06-26T06:38:07.499Z,92.60
2023-06-26T06:40:34.424Z,92.70
2023-06-26T06:43:01.402Z,92.80
2023-06-26T06:45:28.362Z,92.50
2023-06-26T06:47:55.254Z,92.70
2023-06-26T06:50:22.406Z,93.00
2023-06-26T06:52:49.488Z,93.10
2023-06-26T06:55:16.371Z,92.90
2023-06-26T06:57:43.292Z,93.00
2023-06-26T07:00:14.916Z,92.20
2023-06-26T07:02:46.258Z,92.50
2023-06-26T07:05:14.155Z,92.60
2023-06-26T07:07:41.516Z,92.80
2023-06-26T07:10:14.841Z,93.10
2023-06-26T07:12:41.798Z,93.70
2023-06-26T07:15:09.339Z,94.40
2023-06-26T07:17:36.713Z,94.50
2023-06-26T07:20:09.549Z,94.30
2023-06-26T07:22:37.750Z,93.80
2023-06-26T07:25:05.994Z,93.70
2023-06-26T07:27:34.644Z,93.40
2023-06-26T07:30:01.911Z,92.90
2023-06-26T07:32:28.909Z,92.30
2023-06-26T07:34:55.810Z,91.70
2023-06-26T07:37:23.022Z,90.80
2023-06-26T07:39:51.206Z,90.00
2023-06-26T07:42:18.224Z,88.30
2023-06-26T07:44:45.355Z,87.90
2023-06-26T07:47:12.599Z,86.70
2023-06-26T07:49:40.749Z,85.10
2023-06-26T07:52:08.284Z,83.80
2023-06-26T07:54:35.203Z,84.00
2023-06-26T07:57:11.709Z,85.00
2023-06-26T07:59:38.663Z,87.10
2023-06-26T08:02:06.607Z,88.60
2023-06-26T08:04:34.808Z,90.10
2023-06-26T08:07:04.975Z,91.00
2023-06-26T08:09:32.628Z,91.70
2023-06-26T08:12:00.579Z,91.90
2023-06-26T08:14:27.711Z,91.60
2023-06-26T08:16:55.003Z,91.50
2023-06-26T08:19:21.903Z,91.70
2023-06-26T08:21:49.019Z,92.00
2023-06-26T08:24:20.000Z,92.50
2023-06-26T08:26:48.385Z,92.90
2023-06-26T08:29:16.171Z,93.20
2023-06-26T08:31:44.894Z,92.10
2023-06-26T08:34:12.042Z,91.30
2023-06-26T08:36:39.632Z,90.80
2023-06-26T08:39:07.029Z,88.70
2023-06-26T08:41:34.040Z,85.90
2023-06-26T08:44:01.938Z,83.60
2023-06-26T08:46:30.270Z,82.30
2023-06-26T08:49:10.592Z,81.30
2023-06-26T08:51:44.771Z,78.70
2023-06-26T08:54:18.322Z,76.60
2023-06-26T08:56:50.385Z,73.60
2023-06-26T08:59:17.972Z,71.60
2023-06-26T09:01:46.683Z,70.30
2023-06-26T09:04:13.964Z,69.10
2023-06-26T09:06:41.001Z,69.40
2023-06-26T09:09:08.782Z,71.00
2023-06-26T09:11:38.704Z,73.50
2023-06-26T09:14:08.241Z,76.30
2023-06-26T09:16:43.128Z,78.80
2023-06-26T09:19:13.966Z,79.60
2023-06-26T09:21:42.646Z,81.00
2023-06-26T09:24:11.215Z,81.80
2023-06-26T09:26:42.051Z,82.40
2023-06-26T09:29:14.694Z,82.30
2023-06-26T09:31:43.087Z,83.60
2023-06-26T09:34:10.625Z,84.20
2023-06-26T09:36:40.050Z,84.20
2023-06-26T09:39:13.058Z,83.80
2023-06-26T09:41:44.050Z,84.20
2023-06-26T09:44:15.170Z,85.50
2023-06-26T09:46:47.336Z,86.30
2023-06-26T09:49:14.441Z,86.90
2023-06-26T09:51:43.584Z,86.30
2023-06-26T09:54:11.637Z,86.90
2023-06-26T09:56:38.846Z,87.80
2023-06-26T09:59:08.226Z,88.60
2023-06-26T10:01:46.092Z,89.20
2023-06-26T10:04:13.607Z,88.90
2023-06-26T10:06:48.392Z,88.10
2023-06-26T10:09:19.223Z,89.10
2023-06-26T10:12:12.179Z,89.40
2023-06-26T10:14:44.189Z,84.30
2023-06-26T10:17:19.512Z,83.30
2023-06-26T10:19:48.491Z,83.50
2023-06-26T10:22:22.789Z,83.30
2023-06-26T10:24:52.006Z,81.40
2023-06-26T10:27:22.039Z,80.30
2023-06-26T10:30:01.386Z,80.80
2023-06-26T10:32:30.202Z,82.50
2023-06-26T10:34:58.595Z,83.10
2023-06-26T10:37:47.126Z,83.50
2023-06-26T10:40:21.748Z,82.70
2023-06-26T10:42:48.775Z,82.30
2023-06-26T10:45:22.219Z,82.60
2023-06-26T10:47:53.606Z,83.90
2023-06-26T10:50:31.894Z,85.00
2023-06-26T10:53:27.804Z,83.40
2023-06-26T10:56:03.762Z,81.20
2023-06-26T10:58:41.080Z,78.40
2023-06-26T11:01:25.351Z,77.30
2023-06-26T11:04:08.680Z,78.00
2023-06-26T11:06:41.409Z,78.20
2023-06-26T11:09:16.339Z,80.00
2023-06-26T11:11:55.178Z,80.10
2023-06-26T11:14:24.492Z,80.50
2023-06-26T11:16:52.324Z,79.80
2023-06-26T11:19:20.693Z,81.30
2023-06-26T11:21:48.461Z,80.60
2023-06-26T11:24:15.634Z,80.10
2023-06-26T11:26:47.621Z,80.30
2023-06-26T11:29:14.632Z,79.60
2023-06-26T11:31:43.348Z,80.00
2023-06-26T11:34:14.218Z,80.20
2023-06-26T11:36:44.104Z,80.80
2023-06-26T11:39:11.342Z,80.10
2023-06-26T11:41:40.624Z,80.20
2023-06-26T11:44:15.300Z,80.40
2023-06-26T11:46:42.863Z,80.70
2023-06-26T11:49:14.269Z,81.10
2023-06-26T11:51:41.907Z,80.90
2023-06-26T11:54:08.945Z,79.10
2023-06-26T11:56:35.963Z,77.90
2023-06-26T11:59:14.005Z,76.70
2023-06-26T12:01:42.243Z,75.00
2023-06-26T12:04:12.984Z,75.90
2023-06-26T12:06:47.856Z,76.40
2023-06-26T12:09:15.535Z,76.60
2023-06-26T12:11:45.743Z,75.50
2023-06-26T12:14:13.670Z,74.60
2023-06-26T12:16:43.389Z,72.20
2023-06-26T12:19:10.580Z,72.20
2023-06-26T12:21:45.216Z,71.60
2023-06-26T12:24:18.627Z,72.20
2023-06-26T12:26:48.778Z,73.20
2023-06-26T12:29:18.519Z,72.50
2023-06-26T12:31:50.510Z,72.10
2023-06-26T12:34:26.653Z,71.50
2023-06-26T12:36:53.773Z,71.90
2023-06-26T12:39:22.297Z,70.70
2023-06-26T12:42:09.550Z,70.20
2023-06-26T12:44:37.957Z,70.90
2023-06-26T12:47:05.235Z,69.50
2023-06-26T12:49:34.601Z,69.10
2023-06-26T12:52:04.207Z,68.70
2023-06-26T12:54:31.379Z,68.70
2023-06-26T12:56:58.977Z,69.70
2023-06-26T12:59:26.060Z,69.60
2023-06-26T13:01:53.370Z,69.50
2023-06-26T13:04:20.646Z,69.90
2023-06-26T13:06:47.666Z,69.50
2023-06-26T13:09:14.740Z,69.70
2023-06-26T13:11:43.979Z,70.10
2023-06-26T13:14:12.018Z,69.50
2023-06-26T13:16:41.521Z,68.80
2023-06-26T13:19:08.897Z,68.80
2023-06-26T13:21:36.368Z,69.00
2023-06-26T13:24:05.043Z,68.60
2023-06-26T13:29:03.610Z,65.10
2023-06-26T13:31:30.605Z,65.60
2023-06-26T13:34:00.064Z,65.90
2023-06-26T13:36:28.173Z,66.50
2023-06-26T13:38:57.906Z,67.70
2023-06-26T13:41:26.388Z,68.40
2023-06-26T13:43:55.595Z,69.10
2023-06-26T13:46:28.966Z,69.00
2023-06-26T13:48:55.984Z,69.50
2023-06-26T13:51:22.915Z,70.00
2023-06-26T13:53:49.869Z,68.70
2023-06-26T13:56:16.865Z,68.30
2023-06-26T13:58:43.943Z,68.40
2023-06-26T14:01:10.921Z,68.90
2023-06-26T14:03:38.106Z,68.20
2023-06-26T14:06:05.287Z,68.30
2023-06-26T14:08:32.392Z,68.00
2023-06-26T14:10:59.680Z,68.40
2023-06-26T14:13:26.592Z,68.40
2023-06-26T14:15:54.047Z,68.80
2023-06-26T14:18:24.669Z,69.80
2023-06-26T14:20:51.779Z,70.30
2023-06-26T14:23:18.817Z,69.60
2023-06-26T14:25:48.446Z,69.30
2023-06-26T14:28:16.532Z,69.40
2023-06-26T14:30:43.905Z,68.50
2023-06-26T14:33:11.093Z,67.70
2023-06-26T14:35:38.031Z,68.70
2023-06-26T14:38:04.951Z,68.90
2023-06-26T14:40:32.169Z,69.10
2023-06-26T14:42:59.754Z,69.40
2023-06-26T14:45:27.306Z,68.50
2023-06-26T14:47:54.707Z,69.20
2023-06-26T14:50:22.196Z,68.50
2023-06-26T14:52:49.374Z,68.90
2023-06-26T14:55:16.484Z,68.80
2023-06-26T14:57:43.484Z,68.40
2023-06-26T15:00:11.218Z,68.60
2023-06-26T15:02:38.462Z,67.90
2023-06-26T15:05:05.952Z,66.00
2023-06-26T15:07:32.915Z,65.50
2023-06-26T15:10:00.600Z,65.40
2023-06-26T15:12:28.541Z,66.40
2023-06-26T15:14:56.086Z,64.80
2023-06-26T15:17:22.963Z,63.90
2023-06-26T15:19:49.922Z,64.10
2023-06-26T15:22:19.809Z,64.00
2023-06-26T15:24:46.913Z,63.00
2023-06-26T15:27:14.507Z,63.70
2023-06-26T15:29:41.850Z,63.50
2023-06-26T15:32:09.447Z,63.20
2023-06-26T15:34:36.443Z,61.50
2023-06-26T15:37:03.665Z,59.90
2023-06-26T15:39:30.636Z,60.10
2023-06-26T15:41:57.677Z,60.60
2023-06-26T15:44:24.780Z,60.40
2023-06-26T15:46:52.092Z,59.70
2023-06-26T15:49:19.006Z,58.80
2023-06-26T15:51:46.491Z,59.30
2023-06-26T15:54:13.575Z,59.50
2023-06-26T15:56:41.098Z,59.70
2023-06-26T15:59:08.209Z,60.60
2023-06-26T16:01:36.018Z,60.80
2023-06-26T16:04:03.078Z,61.50
2023-06-26T16:06:30.064Z,61.90
2023-06-26T16:08:57.778Z,62.50
2023-06-26T16:11:24.712Z,62.70
2023-06-26T16:13:53.054Z,63.00
2023-06-26T16:16:20.004Z,63.10
2023-06-26T16:18:47.186Z,62.60
2023-06-26T16:21:14.524Z,63.00
2023-06-26T16:23:41.537Z,63.00
2023-06-26T16:26:08.488Z,62.80
2023-06-26T16:28:35.387Z,63.60
2023-06-26T16:31:02.376Z,63.30
2023-06-26T16:33:29.442Z,62.80
2023-06-26T16:35:56.440Z,62.00
2023-06-26T16:38:23.498Z,62.70
2023-06-26T16:40:50.441Z,62.80
2023-06-26T16:43:18.478Z,62.50
2023-06-26T16:45:45.518Z,62.60
2023-06-26T16:48:12.447Z,62.70
2023-06-26T16:50:39.716Z,62.60
2023-06-26T16:53:06.802Z,63.10
2023-06-26T16:55:33.978Z,63.30
2023-06-26T16:58:00.961Z,64.00
2023-06-26T17:00:27.917Z,64.50
2023-06-26T17:02:55.199Z,64.40
2023-06-26T17:05:22.199Z,64.70
2023-06-26T17:07:49.162Z,64.70
2023-06-26T17:10:16.150Z,65.00
2023-06-26T17:12:43.745Z,65.10
2023-06-26T17:15:11.190Z,65.30
2023-06-26T17:17:38.273Z,65.50
2023-06-26T17:20:10.346Z,65.70
2023-06-26T17:22:38.248Z,66.00
2023-06-26T17:25:06.110Z,65.90
2023-06-26T17:27:34.946Z,66.20
2023-06-26T17:30:02.282Z,66.50
2023-06-26T17:32:29.277Z,66.40
2023-06-26T17:34:57.599Z,66.20
2023-06-26T17:37:24.624Z,66.10
2023-06-26T17:39:52.798Z,66.00
2023-06-26T17:42:19.907Z,66.40
2023-06-26T17:44:47.007Z,66.50
2023-06-26T17:47:14.058Z,66.80
2023-06-26T17:49:41.521Z,67.10
2023-06-26T17:52:09.153Z,67.30
2023-06-26T17:54:36.263Z,67.50
2023-06-26T17:57:03.819Z,67.60
2023-06-26T17:59:30.846Z,67.80
2023-06-26T18:01:59.880Z,67.70
2023-06-26T18:04:27.308Z,67.80
2023-06-26T18:06:54.573Z,67.90
2023-06-26T18:09:21.675Z,67.80
2023-06-26T18:11:48.750Z,67.60
2023-06-26T18:14:16.059Z,67.60
2023-06-26T18:16:42.973Z,67.70
2023-06-26T18:19:09.972Z,68.00
2023-06-26T18:21:37.040Z,68.10
2023-06-26T18:24:04.545Z,68.20
2023-06-26T18:26:31.810Z,68.10
2023-06-26T18:28:58.787Z,68.40
2023-06-26T18:31:25.990Z,68.70
2023-06-26T18:33:54.212Z,68.80
2023-06-26T18:36:21.441Z,68.60
2023-06-26T18:38:48.418Z,68.70
2023-06-26T18:41:15.775Z,68.60
2023-06-26T18:43:48.597Z,68.70
2023-06-26T18:46:16.413Z,68.80
2023-06-26T18:48:43.590Z,68.90
2023-06-26T18:51:11.010Z,68.90
2023-06-26T18:53:40.672Z,69.00
2023-06-26T18:56:08.591Z,69.30
2023-06-26T18:58:37.706Z,69.20
2023-06-26T19:01:05.719Z,69.10
2023-06-26T19:03:32.786Z,69.00
2023-06-26T19:05:59.899Z,69.10
2023-06-26T19:08:27.153Z,69.40
2023-06-26T19:10:54.006Z,69.40
2023-06-26T19:13:21.026Z,69.30
2023-06-26T19:15:48.232Z,69.40
2023-06-26T19:18:15.246Z,69.60
2023-06-26T19:20:42.401Z,69.90
2023-06-26T19:23:09.282Z,70.10
2023-06-26T19:25:36.234Z,70.20
2023-06-26T19:28:03.299Z,70.80
2023-06-26T19:30:30.494Z,71.10
2023-06-26T19:32:57.706Z,71.50
2023-06-26T19:35:24.847Z,72.00
2023-06-26T19:38:03.212Z,72.20
2023-06-26T19:40:36.696Z,72.60
2023-06-26T19:43:04.962Z,72.90
2023-06-26T19:45:32.736Z,73.50
2023-06-26T19:48:00.021Z,74.20
2023-06-26T19:50:27.115Z,74.50
2023-06-26T19:52:54.545Z,74.80
2023-06-26T19:55:21.628Z,75.20
2023-06-26T19:57:49.583Z,75.80
2023-06-26T20:00:17.623Z,76.50
2023-06-26T20:02:44.891Z,76.70
2023-06-26T20:05:12.365Z,77.90
2023-06-26T20:07:42.415Z,77.30
2023-06-26T20:10:09.567Z,77.80
2023-06-26T20:12:36.797Z,78.20
2023-06-26T20:15:04.477Z,78.80
2023-06-26T20:17:32.441Z,79.20
2023-06-26T20:19:59.392Z,79.40
2023-06-26T20:22:26.341Z,80.00
2023-06-26T20:24:53.275Z,80.30
2023-06-26T20:27:21.683Z,80.90
2023-06-26T20:29:48.648Z,81.80
2023-06-26T20:32:15.663Z,82.50
2023-06-26T20:34:43.210Z,83.00
2023-06-26T20:37:10.266Z,83.60
2023-06-26T20:39:37.656Z,84.30
2023-06-26T20:42:05.425Z,84.80
2023-06-26T20:44:32.821Z,85.30
2023-06-26T20:47:09.760Z,85.90
2023-06-26T20:49:38.740Z,86.30
2023-06-26T20:52:11.988Z,86.40
2023-06-26T20:54:40.553Z,86.90
2023-06-26T20:57:10.387Z,87.40
2023-06-26T20:59:41.539Z,87.90
2023-06-26T21:02:08.640Z,88.20
2023-06-26T21:04:38.684Z,89.60
2023-06-26T21:07:07.689Z,89.60
2023-06-26T21:09:35.264Z,90.00
2023-06-26T21:12:02.861Z,90.10
2023-06-26T21:14:29.994Z,90.20
2023-06-26T21:16:57.035Z,90.40
2023-06-26T21:19:24.106Z,90.60
2023-06-26T21:21:51.265Z,90.70
2023-06-26T21:24:18.230Z,90.80
2023-06-26T21:26:45.220Z,91.10
2023-06-26T21:29:12.093Z,91.20
2023-06-26T21:31:38.989Z,91.30
2023-06-26T21:34:06.937Z,91.40
2023-06-26T21:36:33.889Z,91.40
2023-06-26T21:39:00.899Z,91.50
2023-06-26T21:41:28.135Z,91.70
2023-06-26T21:43:55.041Z,91.80
2023-06-26T21:46:22.032Z,91.90
2023-06-26T21:48:48.994Z,92.00
2023-06-26T21:51:15.874Z,92.10
2023-06-26T21:53:42.798Z,92.20
2023-06-26T21:56:09.784Z,92.30
2023-06-26T21:58:36.730Z,92.40
2023-06-26T22:01:03.683Z,92.60
2023-06-26T22:03:30.776Z,92.90
2023-06-26T22:05:57.709Z,93.00
2023-06-26T22:08:24.567Z,93.10
2023-06-26T22:10:51.480Z,93.30
2023-06-26T22:13:19.009Z,93.50
2023-06-26T22:15:45.895Z,93.50
2023-06-26T22:18:12.788Z,93.70
2023-06-26T22:20:40.520Z,94.00
2023-06-26T22:23:07.419Z,94.10
2023-06-26T22:25:34.503Z,94.40
2023-06-26T22:28:01.422Z,94.20
2023-06-26T22:30:28.405Z,94.30
2023-06-26T22:32:55.683Z,94.40
2023-06-26T22:35:22.605Z,94.60
2023-06-26T22:37:49.535Z,94.60
2023-06-26T22:40:17.111Z,94.60
2023-06-26T22:42:44.116Z,94.80
2023-06-26T22:45:12.781Z,94.90
2023-06-26T22:47:44.692Z,95.00
2023-06-26T22:50:11.782Z,95.00
2023-06-26T22:52:39.485Z,95.20
2023-06-26T22:55:06.918Z,95.20
2023-06-26T22:57:34.989Z,95.40
2023-06-26T23:00:01.899Z,95.40
2023-06-26T23:02:28.972Z,95.60
2023-06-26T23:04:55.985Z,95.60
2023-06-26T23:07:23.033Z,95.70
2023-06-26T23:09:50.238Z,95.70
2023-06-26T23:12:17.300Z,95.80
2023-06-26T23:14:44.523Z,96.00
2023-06-26T23:17:12.634Z,96.00
2023-06-26T23:19:41.659Z,96.10
2023-06-26T23:22:11.923Z,96.20
2023-06-26T23:24:41.594Z,96.20
2023-06-26T23:27:11.560Z,96.40
2023-06-26T23:29:39.860Z,96.40
2023-06-26T23:32:08.713Z,96.40
2023-06-26T23:34:39.750Z,96.50
2023-06-26T23:37:13.003Z,96.60
2023-06-26T23:39:43.250Z,96.60
2023-06-26T23:42:11.453Z,96.80
2023-06-26T23:44:38.956Z,96.80
2023-06-26T23:47:07.185Z,96.90
2023-06-26T23:49:36.551Z,97.00
2023-06-26T23:52:04.855Z,97.20
2023-06-26T23:54:32.487Z,97.20
2023-06-26T23:56:59.748Z,97.30
2023-06-26T23:59:26.840Z,97.50
